createdAt,value
2019-03-24T00:02:12.727Z,2.80
2019-03-24T00:04:59.538Z,2.60
2019-03-24T00:07:47.750Z,2.08
2019-03-24T00:10:34.656Z,2.17
2019-03-24T00:13:21.485Z,1.95
2019-03-24T00:16:08.464Z,2.02
2019-03-24T00:18:55.310Z,2.10
2019-03-24T00:21:42.225Z,2.10
2019-03-24T00:24:29.164Z,1.85
2019-03-24T00:27:15.951Z,2.10
2019-03-24T00:30:05.270Z,1.90
2019-03-24T00:32:51.771Z,1.82
2019-03-24T00:35:38.308Z,2.10
2019-03-24T00:38:25.076Z,1.85
2019-03-24T00:41:11.448Z,1.92
2019-03-24T00:43:57.971Z,1.92
2019-03-24T00:46:44.376Z,1.90
2019-03-24T00:49:31.223Z,1.85
2019-03-24T00:52:17.942Z,1.62
2019-03-24T00:55:05.400Z,2.00
2019-03-24T00:57:52.292Z,1.75
2019-03-24T01:00:43.839Z,2.00
2019-03-24T01:03:31.377Z,1.67
2019-03-24T01:06:17.793Z,1.82
2019-03-24T01:09:07.019Z,1.87
2019-03-24T01:11:59.785Z,1.70
2019-03-24T01:14:46.651Z,1.70
2019-03-24T01:17:33.548Z,1.70
2019-03-24T01:20:20.056Z,1.70
2019-03-24T01:23:06.909Z,1.80
2019-03-24T01:25:53.903Z,1.80
2019-03-24T01:28:40.255Z,1.42
2019-03-24T01:31:26.715Z,1.80
2019-03-24T01:34:13.218Z,1.82
2019-03-24T01:36:59.926Z,1.40
2019-03-24T01:39:46.517Z,1.50
2019-03-24T01:42:33.075Z,1.70
2019-03-24T01:45:19.847Z,1.47
2019-03-24T01:48:06.727Z,1.50
2019-03-24T01:50:53.211Z,1.70
2019-03-24T01:53:39.572Z,1.70
2019-03-24T01:56:25.978Z,1.40
2019-03-24T01:59:13.051Z,1.62
2019-03-24T02:01:59.839Z,1.62
2019-03-24T02:04:46.824Z,1.62
2019-03-24T02:07:33.783Z,1.50
2019-03-24T02:10:20.646Z,1.80
2019-03-24T02:13:07.163Z,1.35
2019-03-24T02:15:54.451Z,1.55
2019-03-24T02:18:41.427Z,1.60
2019-03-24T02:21:28.839Z,1.50
2019-03-24T02:24:15.840Z,1.80
2019-03-24T02:27:03.020Z,1.70
2019-03-24T02:29:49.928Z,1.67
2019-03-24T02:32:36.904Z,1.70
2019-03-24T02:35:23.780Z,1.65
2019-03-24T02:38:10.595Z,1.67
2019-03-24T02:40:57.261Z,1.32
2019-03-24T02:43:44.264Z,1.50
2019-03-24T02:46:31.111Z,1.37
2019-03-24T02:49:17.645Z,1.72
2019-03-24T02:52:04.532Z,1.52
2019-03-24T02:54:51.197Z,1.60
2019-03-24T02:57:38.062Z,1.65
2019-03-24T03:00:24.908Z,1.67
2019-03-24T03:03:11.199Z,1.70
2019-03-24T03:05:57.615Z,1.80
2019-03-24T03:08:44.528Z,1.57
2019-03-24T03:11:31.887Z,1.87
2019-03-24T03:14:18.751Z,1.37
2019-03-24T03:17:05.900Z,1.72
2019-03-24T03:19:53.821Z,1.70
2019-03-24T03:22:40.624Z,1.72
2019-03-24T03:25:27.630Z,1.80
2019-03-24T03:28:14.707Z,1.57
2019-03-24T03:31:01.576Z,1.55
2019-03-24T03:33:48.581Z,1.62
2019-03-24T03:36:35.364Z,1.52
2019-03-24T03:39:22.295Z,1.72
2019-03-24T03:42:09.058Z,1.62
2019-03-24T03:44:55.610Z,1.47
2019-03-24T03:47:42.473Z,1.72
2019-03-24T03:50:29.403Z,1.65
2019-03-24T03:53:16.329Z,1.65
2019-03-24T03:56:03.209Z,1.40
2019-03-24T03:58:49.967Z,1.80
2019-03-24T04:01:37.198Z,1.67
2019-03-24T04:04:23.871Z,1.55
2019-03-24T04:07:10.919Z,1.55
2019-03-24T04:09:57.895Z,1.45
2019-03-24T04:12:44.875Z,1.47
2019-03-24T04:15:31.688Z,1.65
2019-03-24T04:18:18.188Z,1.32
2019-03-24T04:21:05.043Z,1.50
2019-03-24T04:23:51.934Z,1.20
2019-03-24T04:26:39.797Z,1.80
2019-03-24T04:29:26.600Z,1.20
2019-03-24T04:32:13.382Z,1.65
2019-03-24T04:34:59.997Z,1.30
2019-03-24T04:37:46.943Z,1.60
2019-03-24T04:40:34.204Z,1.80
2019-03-24T04:43:20.853Z,2.08
2019-03-24T04:46:07.930Z,1.67
2019-03-24T04:48:54.805Z,1.65
2019-03-24T04:51:41.372Z,1.50
2019-03-24T04:54:28.296Z,1.70
2019-03-24T04:57:15.664Z,1.60
2019-03-24T05:00:02.648Z,2.08
2019-03-24T05:02:50.688Z,1.80
2019-03-24T05:05:38.195Z,1.90
2019-03-24T05:08:25.674Z,1.50
2019-03-24T05:11:12.253Z,1.75
2019-03-24T05:13:59.257Z,1.60
2019-03-24T05:16:46.085Z,1.65
2019-03-24T05:19:33.161Z,1.50
2019-03-24T05:22:20.204Z,1.70
2019-03-24T05:25:06.659Z,1.65
2019-03-24T05:27:53.380Z,1.80
2019-03-24T05:30:40.410Z,1.47
2019-03-24T05:33:27.179Z,1.67
2019-03-24T05:36:13.691Z,1.70
2019-03-24T05:39:00.326Z,1.30
2019-03-24T05:41:47.122Z,1.77
2019-03-24T05:44:34.051Z,1.60
2019-03-24T05:47:20.619Z,1.47
2019-03-24T05:50:07.520Z,1.40
2019-03-24T05:52:54.404Z,1.45
2019-03-24T05:55:41.403Z,1.70
2019-03-24T05:58:27.788Z,1.70
2019-03-24T06:01:17.551Z,1.57
2019-03-24T06:04:04.247Z,1.72
2019-03-24T06:06:51.072Z,1.60
2019-03-24T06:09:38.078Z,1.67
2019-03-24T06:12:24.508Z,1.65
2019-03-24T06:15:11.743Z,1.45
2019-03-24T06:17:58.491Z,1.52
2019-03-24T06:20:44.839Z,1.62
2019-03-24T06:23:31.812Z,1.82
2019-03-24T06:26:18.708Z,2.08
2019-03-24T06:29:05.100Z,1.47
2019-03-24T06:31:52.514Z,1.40
2019-03-24T06:34:39.320Z,1.67
2019-03-24T06:37:26.316Z,1.57
2019-03-24T06:40:13.383Z,1.50
2019-03-24T06:43:00.279Z,1.40
2019-03-24T06:45:47.307Z,1.75
2019-03-24T06:48:34.296Z,1.60
2019-03-24T06:51:23.228Z,1.60
2019-03-24T06:54:09.679Z,1.80
2019-03-24T06:56:56.495Z,1.77
2019-03-24T06:59:43.693Z,1.45
2019-03-24T07:02:29.919Z,1.50
2019-03-24T07:05:16.355Z,1.90
2019-03-24T07:08:03.264Z,1.70
2019-03-24T07:10:50.191Z,1.67
2019-03-24T07:13:38.041Z,1.62
2019-03-24T07:16:26.343Z,1.87
2019-03-24T07:19:12.995Z,1.92
2019-03-24T07:21:59.424Z,1.72
2019-03-24T07:24:46.247Z,1.82
2019-03-24T07:27:33.201Z,1.70
2019-03-24T07:30:19.868Z,1.67
2019-03-24T07:33:06.570Z,1.80
2019-03-24T07:35:53.483Z,1.80
2019-03-24T07:38:40.247Z,1.85
2019-03-24T07:41:27.158Z,1.60
2019-03-24T07:44:13.662Z,1.92
2019-03-24T07:47:06.476Z,1.55
2019-03-24T07:49:53.039Z,1.60
2019-03-24T07:52:39.884Z,1.55
2019-03-24T07:55:26.922Z,1.70
2019-03-24T07:58:13.836Z,1.95
2019-03-24T08:01:01.316Z,1.82
2019-03-24T08:03:47.926Z,1.87
2019-03-24T08:06:19.399Z,1.62
2019-03-24T08:08:54.859Z,1.72
2019-03-24T08:11:27.443Z,1.62
2019-03-24T08:13:59.064Z,1.52
2019-03-24T08:16:43.937Z,1.62
2019-03-24T08:19:19.614Z,1.90
2019-03-24T08:21:52.644Z,1.77
2019-03-24T08:24:26.007Z,1.30
2019-03-24T08:27:00.497Z,1.65
2019-03-24T08:30:02.853Z,1.40
2019-03-24T08:32:36.271Z,1.50
2019-03-24T08:35:13.012Z,1.50
2019-03-24T08:37:51.831Z,1.75
2019-03-24T08:40:42.711Z,1.50
2019-03-24T08:43:15.672Z,1.70
2019-03-24T08:45:44.957Z,1.50
2019-03-24T08:48:29.173Z,1.85
2019-03-24T08:50:58.244Z,1.60
2019-03-24T08:53:27.226Z,2.02
2019-03-24T08:56:05.896Z,1.95
2019-03-24T08:58:42.176Z,1.75
2019-03-24T09:01:20.125Z,1.95
2019-03-24T09:03:54.787Z,1.75
2019-03-24T09:06:49.830Z,1.92
2019-03-24T09:09:48.772Z,1.50
2019-03-24T09:12:21.923Z,1.70
2019-03-24T09:15:15.281Z,1.62
2019-03-24T09:18:18.808Z,2.05
2019-03-24T09:20:57.559Z,1.87
2019-03-24T09:23:36.395Z,1.80
2019-03-24T09:26:23.449Z,1.75
2019-03-24T09:28:59.371Z,1.72
2019-03-24T09:31:40.359Z,1.87
2019-03-24T09:34:29.634Z,1.50
2019-03-24T09:37:02.426Z,1.82
2019-03-24T09:39:48.580Z,1.47
2019-03-24T09:42:28.309Z,2.17
2019-03-24T09:44:58.708Z,3.22
2019-03-24T09:47:45.084Z,4.30
2019-03-24T09:50:31.625Z,4.85
2019-03-24T09:53:20.324Z,5.15
2019-03-24T09:56:07.066Z,4.90
2019-03-24T09:58:54.041Z,4.80
2019-03-24T10:01:40.897Z,4.45
2019-03-24T10:04:27.232Z,4.10
2019-03-24T10:07:14.408Z,4.10
2019-03-24T10:10:01.208Z,4.42
2019-03-24T10:12:49.487Z,4.45
2019-03-24T10:15:36.072Z,4.10
2019-03-24T10:18:23.039Z,3.85
2019-03-24T10:21:09.804Z,4.33
2019-03-24T10:23:56.331Z,4.03
2019-03-24T10:26:43.252Z,3.95
2019-03-24T10:29:30.152Z,3.35
2019-03-24T10:32:17.126Z,3.33
2019-03-24T10:35:04.319Z,3.17
2019-03-24T10:37:51.055Z,3.20
2019-03-24T10:40:37.430Z,3.42
2019-03-24T10:43:24.444Z,3.12
2019-03-24T10:46:11.336Z,3.27
2019-03-24T10:48:58.151Z,3.02
2019-03-24T10:51:45.194Z,2.80
2019-03-24T10:54:32.017Z,2.77
2019-03-24T10:57:19.352Z,3.20
2019-03-24T11:00:08.124Z,3.08
2019-03-24T11:02:54.736Z,3.02
2019-03-24T11:05:42.017Z,2.98
2019-03-24T11:08:28.755Z,3.00
2019-03-24T11:11:16.807Z,2.62
2019-03-24T11:14:03.104Z,2.62
2019-03-24T11:16:50.050Z,2.25
2019-03-24T11:19:37.121Z,2.60
2019-03-24T11:22:24.027Z,2.42
2019-03-24T11:25:11.089Z,2.27
2019-03-24T11:27:58.051Z,2.30
2019-03-24T11:30:44.919Z,2.50
2019-03-24T11:33:31.653Z,2.40
2019-03-24T11:36:18.285Z,2.58
2019-03-24T11:39:06.615Z,2.60
2019-03-24T11:41:53.080Z,2.33
2019-03-24T11:44:40.047Z,2.00
2019-03-24T11:47:28.222Z,2.17
2019-03-24T11:50:16.160Z,2.15
2019-03-24T11:53:03.187Z,2.45
2019-03-24T11:55:49.591Z,2.45
2019-03-24T11:58:36.641Z,2.17
2019-03-24T12:01:25.827Z,2.20
2019-03-24T12:04:12.864Z,1.75
2019-03-24T12:06:59.847Z,1.87
2019-03-24T12:09:47.101Z,1.67
2019-03-24T12:12:33.972Z,1.90
2019-03-24T12:15:21.153Z,1.67
2019-03-24T12:18:08.023Z,1.77
2019-03-24T12:20:55.039Z,1.90
2019-03-24T12:23:41.708Z,1.72
2019-03-24T12:26:28.635Z,1.60
2019-03-24T12:29:15.372Z,2.00
2019-03-24T12:32:02.095Z,1.70
2019-03-24T12:34:48.910Z,1.62
2019-03-24T12:37:35.799Z,2.05
2019-03-24T12:40:22.679Z,2.05
2019-03-24T12:43:19.094Z,1.70
2019-03-24T12:45:57.841Z,1.70
2019-03-24T12:48:44.940Z,1.70
2019-03-24T12:51:31.915Z,1.70
2019-03-24T12:54:22.640Z,1.67
2019-03-24T12:57:09.180Z,1.62
2019-03-24T12:59:56.240Z,1.80
2019-03-24T13:02:43.179Z,1.40
2019-03-24T13:05:31.612Z,1.67
2019-03-24T13:08:24.496Z,1.60
2019-03-24T13:11:08.273Z,1.65
2019-03-24T13:14:03.450Z,1.82
2019-03-24T13:17:06.669Z,1.50
2019-03-24T13:19:57.933Z,1.40
2019-03-24T13:22:45.768Z,1.72
2019-03-24T13:25:40.750Z,1.90
2019-03-24T13:28:33.795Z,2.27
2019-03-24T13:31:21.619Z,2.70
2019-03-24T13:33:52.553Z,2.72
2019-03-24T13:36:24.263Z,2.40
2019-03-24T13:38:56.953Z,2.08
2019-03-24T13:41:26.102Z,2.75
2019-03-24T13:43:55.476Z,2.40
2019-03-24T13:46:40.141Z,3.30
2019-03-24T13:49:16.983Z,2.17
2019-03-24T13:51:49.155Z,2.47
2019-03-24T13:54:18.716Z,2.25
2019-03-24T13:56:51.073Z,2.02
2019-03-24T13:59:49.510Z,1.80
2019-03-24T14:02:46.941Z,2.17
2019-03-24T14:05:42.871Z,2.12
2019-03-24T14:08:31.533Z,2.72
2019-03-24T14:11:11.015Z,2.52
2019-03-24T14:14:02.614Z,2.62
2019-03-24T14:16:38.061Z,2.05
2019-03-24T14:19:17.494Z,2.17
2019-03-24T14:22:17.524Z,1.90
2019-03-24T14:25:12.931Z,1.47
2019-03-24T14:27:55.441Z,2.17
2019-03-24T14:30:49.444Z,1.95
2019-03-24T14:33:57.385Z,1.77
2019-03-24T14:42:39.255Z,1.85
2019-03-24T14:45:12.499Z,1.98
2019-03-24T14:47:44.193Z,1.90
2019-03-24T14:50:30.622Z,2.25
2019-03-24T14:53:31.120Z,1.90
2019-03-24T14:56:27.847Z,1.62
2019-03-24T14:59:11.214Z,1.72
2019-03-24T15:01:51.041Z,1.87
2019-03-24T15:04:32.214Z,1.40
2019-03-24T15:07:05.585Z,1.70
2019-03-24T15:09:43.796Z,1.75
2019-03-24T15:12:28.608Z,1.62
2019-03-24T15:15:14.991Z,2.08
2019-03-24T15:18:06.119Z,1.60
2019-03-24T15:20:40.887Z,1.55
2019-03-24T15:23:14.134Z,1.60
2019-03-24T15:25:48.731Z,1.52
2019-03-24T15:28:35.826Z,1.40
2019-03-24T15:31:20.792Z,1.52
2019-03-24T15:34:07.319Z,1.30
2019-03-24T15:36:43.611Z,1.10
2019-03-24T15:39:12.379Z,1.37
2019-03-24T15:41:48.243Z,1.27
2019-03-24T15:44:23.113Z,1.30
2019-03-24T15:47:06.028Z,1.60
2019-03-24T15:49:52.885Z,1.27
2019-03-24T15:52:25.824Z,1.40
2019-03-24T15:54:55.392Z,1.17
2019-03-24T15:57:26.109Z,1.20
2019-03-24T16:00:10.620Z,1.00
2019-03-24T16:02:40.655Z,1.07
2019-03-24T16:05:12.290Z,1.30
2019-03-24T16:07:41.473Z,1.05
2019-03-24T16:10:12.587Z,1.40
2019-03-24T16:12:50.844Z,0.98
2019-03-24T16:15:20.390Z,1.20
2019-03-24T16:18:07.223Z,1.25
2019-03-24T16:20:54.317Z,0.93
2019-03-24T16:23:41.045Z,1.35
2019-03-24T16:26:27.514Z,1.57
2019-03-24T16:29:14.576Z,1.05
2019-03-24T16:32:02.139Z,1.37
2019-03-24T16:34:49.049Z,1.22
2019-03-24T16:37:36.029Z,1.40
2019-03-24T16:40:23.949Z,1.30
2019-03-24T16:43:10.895Z,1.30
2019-03-24T16:45:57.208Z,1.20
2019-03-24T16:48:51.470Z,1.00
2019-03-24T16:51:22.986Z,1.30
2019-03-24T16:53:54.972Z,1.40
2019-03-24T16:56:46.254Z,1.32
2019-03-24T16:59:26.260Z,1.77
2019-03-24T17:02:02.403Z,1.35
2019-03-24T17:04:53.124Z,1.50
2019-03-24T17:07:27.255Z,1.12
2019-03-24T17:10:08.698Z,1.37
2019-03-24T17:13:04.352Z,1.35
2019-03-24T17:15:40.165Z,1.27
2019-03-24T17:18:12.002Z,1.25
2019-03-24T17:20:45.877Z,1.52
2019-03-24T17:23:16.608Z,1.37
2019-03-24T17:26:00.011Z,1.30
2019-03-24T17:28:55.013Z,1.15
2019-03-24T17:31:34.365Z,1.17
2019-03-24T17:34:06.369Z,1.20
2019-03-24T17:36:49.194Z,1.10
2019-03-24T17:39:31.328Z,1.30
2019-03-24T17:42:05.848Z,1.25
2019-03-24T17:44:41.017Z,1.20
2019-03-24T17:47:18.047Z,1.17
2019-03-24T17:49:51.496Z,1.20
2019-03-24T17:52:26.813Z,1.52
2019-03-24T17:54:59.709Z,1.05
2019-03-24T17:57:32.681Z,0.95
2019-03-24T18:00:05.778Z,1.10
2019-03-24T18:02:37.890Z,1.20
2019-03-24T18:05:10.421Z,1.50
2019-03-24T18:07:57.167Z,1.02
2019-03-24T18:10:43.843Z,1.10
2019-03-24T18:13:33.149Z,0.95
2019-03-24T18:16:19.899Z,1.17
2019-03-24T18:19:06.996Z,1.10
2019-03-24T18:21:53.745Z,1.27
2019-03-24T18:24:40.652Z,1.10
2019-03-24T18:27:27.608Z,1.00
2019-03-24T18:30:15.213Z,1.25
2019-03-24T18:33:01.933Z,1.00
2019-03-24T18:35:48.645Z,1.00
2019-03-24T18:38:37.228Z,1.10
2019-03-24T18:41:10.252Z,1.20
2019-03-24T18:47:16.291Z,1.00
2019-03-24T18:49:46.458Z,1.27
2019-03-24T18:52:22.547Z,1.40
2019-03-24T18:55:04.033Z,1.45
2019-03-24T18:57:50.712Z,1.20
2019-03-24T19:00:37.861Z,1.20
2019-03-24T19:03:24.838Z,1.37
2019-03-24T19:06:11.588Z,1.30
2019-03-24T19:09:00.657Z,1.17
2019-03-24T19:11:47.519Z,0.93
2019-03-24T19:14:34.571Z,1.10
2019-03-24T19:17:21.383Z,1.00
2019-03-24T19:20:16.999Z,1.30
2019-03-24T19:23:03.710Z,1.17
2019-03-24T19:25:50.704Z,1.30
2019-03-24T19:28:37.656Z,1.00
2019-03-24T19:31:24.269Z,0.95
2019-03-24T19:34:11.080Z,0.82
2019-03-24T19:36:59.026Z,0.90
2019-03-24T19:39:36.296Z,1.00
2019-03-24T19:42:15.633Z,1.02
2019-03-24T19:44:45.035Z,1.00
2019-03-24T19:47:14.419Z,1.20
2019-03-24T19:49:50.686Z,1.15
2019-03-24T19:52:30.510Z,1.30
2019-03-24T19:55:00.984Z,1.20
2019-03-24T19:57:31.396Z,1.07
2019-03-24T20:00:17.551Z,1.10
2019-03-24T20:03:11.484Z,1.00
2019-03-24T20:06:15.374Z,1.42
2019-03-24T20:08:51.369Z,1.02
2019-03-24T20:11:21.410Z,1.20
2019-03-24T20:13:57.004Z,1.10
2019-03-24T20:16:30.079Z,1.30
2019-03-24T20:19:07.563Z,1.30
2019-03-24T20:21:40.581Z,1.30
2019-03-24T20:24:10.210Z,1.30
2019-03-24T20:26:43.710Z,1.50
2019-03-24T20:29:14.733Z,1.70
2019-03-24T20:31:53.735Z,1.40
2019-03-24T20:34:23.365Z,1.40
2019-03-24T20:37:12.456Z,1.65
2019-03-24T20:39:52.951Z,1.37
2019-03-24T20:42:31.634Z,1.32
2019-03-24T20:45:25.971Z,1.37
2019-03-24T20:48:15.867Z,1.37
2019-03-24T20:50:50.501Z,1.60
2019-03-24T20:53:34.185Z,1.50
2019-03-24T20:56:08.448Z,1.50
2019-03-24T20:58:47.463Z,1.22
2019-03-24T21:01:23.146Z,1.50
2019-03-24T21:04:16.517Z,1.32
2019-03-24T21:06:46.395Z,1.52
2019-03-24T21:09:22.017Z,1.40
2019-03-24T21:12:09.887Z,1.35
2019-03-24T21:15:00.362Z,1.65
2019-03-24T21:18:01.620Z,1.70
2019-03-24T21:21:07.095Z,1.30
2019-03-24T21:24:06.855Z,1.50
2019-03-24T21:26:54.086Z,1.50
2019-03-24T21:29:26.983Z,1.50
2019-03-24T21:32:20.093Z,1.55
2019-03-24T21:35:14.270Z,1.35
2019-03-24T21:37:51.275Z,1.60
2019-03-24T21:40:24.129Z,1.32
2019-03-24T21:43:02.968Z,1.40
2019-03-24T21:45:50.981Z,1.47
2019-03-24T21:48:24.762Z,1.32
2019-03-24T21:50:57.455Z,1.60
2019-03-24T21:53:55.515Z,1.30
2019-03-24T21:56:34.971Z,1.47
2019-03-24T21:59:15.889Z,1.27
2019-03-24T22:01:54.577Z,1.12
2019-03-24T22:04:25.876Z,1.22
2019-03-24T22:07:05.096Z,1.20
2019-03-24T22:09:38.461Z,1.22
2019-03-24T22:12:23.576Z,1.57
2019-03-24T22:15:11.503Z,1.40
2019-03-24T22:17:45.730Z,1.22
2019-03-24T22:20:18.360Z,1.30
2019-03-24T22:22:49.939Z,1.12
2019-03-24T22:25:25.376Z,1.40
2019-03-24T22:28:14.346Z,1.15
2019-03-24T22:31:10.678Z,1.40
2019-03-24T22:33:47.439Z,1.20
2019-03-24T22:36:23.096Z,1.30
2019-03-24T22:38:53.518Z,1.20
2019-03-24T22:41:23.856Z,1.30
2019-03-24T22:44:10.754Z,1.12
2019-03-24T22:46:59.078Z,1.10
2019-03-24T22:49:45.825Z,1.00
2019-03-24T22:52:32.870Z,1.17
2019-03-24T22:55:19.700Z,1.27
2019-03-24T22:58:06.606Z,1.30
2019-03-24T23:00:55.375Z,1.10
2019-03-24T23:03:42.176Z,1.10
2019-03-24T23:06:28.972Z,1.07
2019-03-24T23:09:15.828Z,1.10
2019-03-24T23:12:02.907Z,1.02
2019-03-24T23:14:49.895Z,1.50
2019-03-24T23:18:03.280Z,1.10
2019-03-24T23:21:18.643Z,1.10
2019-03-24T23:24:17.193Z,1.00
2019-03-24T23:26:52.171Z,1.25
2019-03-24T23:29:23.484Z,1.10
2019-03-24T23:31:57.670Z,1.00
2019-03-24T23:34:27.713Z,1.10
2019-03-24T23:36:58.963Z,1.10
2019-03-24T23:39:32.591Z,1.00
2019-03-24T23:42:05.337Z,0.80
2019-03-24T23:44:57.513Z,1.20
2019-03-24T23:47:31.733Z,1.17
2019-03-24T23:50:02.793Z,1.20
2019-03-24T23:52:32.773Z,1.10
2019-03-24T23:55:03.830Z,1.00
2019-03-24T23:57:36.641Z,1.20
